Time;durP1;ratioP1;P1;durP2;ratioP2;P2;SDS_P1;SDS_P2;PMS_P1;PMS_P2;Temp;Humidity;BMP_temperature;BMP_pressure;BME280_temperature;BME280_humidity;BME280_pressure;Samples;Min_cycle;Max_cycle;Signal;HPM_P1;HPM_P2
2021/08/26 00:07:06;;;;;;;;;;;18.10;93.20;;;17.16;90.96;100470.44;5008781;28;19929;-66
2021/08/26 00:09:34;;;;;;;;;;;18.00;93.50;;;17.15;91.28;100477.88;5008739;28;20027;-66
2021/08/26 00:12:02;;;;;;;;;;;18.00;93.60;;;17.19;90.55;100468.09;5009120;28;19930;-66
2021/08/26 00:14:29;;;;;;;;;;;18.00;94.10;;;17.12;91.25;100475.56;5008779;28;19971;-66
2021/08/26 00:16:56;;;;;;;;;;;18.00;93.80;;;17.15;91.64;100469.63;5009767;28;19960;-66
2021/08/26 00:19:24;;;;;;;;;;;18.00;94.10;;;17.19;91.43;100470.84;5011725;28;19933;-66
2021/08/26 00:21:51;;;;;;;;;;;18.00;94.20;;;17.20;91.53;100464.25;5012943;28;19929;-66
2021/08/26 00:24:19;;;;;;;;;;;18.00;94.30;;;17.13;92.06;100459.91;5012662;28;19975;-66
2021/08/26 00:26:46;;;;;;;;;;;18.00;94.30;;;17.17;91.78;100459.22;5012691;28;19980;-66
2021/08/26 00:29:15;;;;;;;;;;;18.00;94.60;;;17.19;91.54;100457.06;5012861;28;19984;-66
2021/08/26 00:31:42;;;;;;;;;;;18.00;94.90;;;17.18;91.69;100444.38;5012724;28;20403;-66
2021/08/26 00:34:09;;;;;;;;;;;18.00;94.80;;;17.21;91.42;100451.34;5012622;28;20567;-66
2021/08/26 00:36:36;;;;;;;;;;;18.00;94.90;;;17.19;91.39;100446.06;5011853;28;20036;-66
2021/08/26 00:39:04;;;;;;;;;;;18.00;94.60;;;17.16;91.96;100441.03;5012538;28;19953;-66
2021/08/26 00:41:33;;;;;;;;;;;18.00;95.00;;;17.18;92.16;100433.38;5012476;28;20404;-66
2021/08/26 00:44:01;;;;;;;;;;;18.00;95.10;;;17.18;92.14;100438.88;5012452;28;19937;-66
2021/08/26 00:46:28;;;;;;;;;;;18.00;95.00;;;17.22;91.81;100432.94;5011968;28;19933;-66
2021/08/26 00:48:56;;;;;;;;;;;17.90;95.40;;;17.20;91.98;100434.00;5012353;28;19935;-66
2021/08/26 00:51:23;;;;;;;;;;;18.00;95.40;;;17.19;92.51;100425.97;5012590;28;19980;-66
2021/08/26 00:53:51;;;;;;;;;;;17.90;95.70;;;17.13;92.87;100421.41;5012251;28;20679;-66
2021/08/26 00:56:18;;;;;;;;;;;17.90;95.60;;;17.08;93.25;100424.00;5011526;28;19926;-66
2021/08/26 00:58:49;;;;;;;;;;;17.90;95.50;;;17.13;92.92;100416.72;5012204;28;20094;-66
2021/08/26 01:01:18;;;;;;;;;;;17.90;95.60;;;17.12;92.68;100412.31;5012039;28;19933;-66
2021/08/26 01:03:50;;;;;;;;;;;17.90;95.70;;;17.16;93.13;100412.69;5011829;28;20055;-66
2021/08/26 01:06:21;;;;;;;;;;;17.90;95.90;;;17.11;93.39;100405.13;5000563;28;20428;-66
2021/08/26 01:08:52;;;;;;;;;;;17.90;95.70;;;17.11;93.61;100402.38;4992428;28;20028;-66
2021/08/26 01:11:19;;;;;;;;;;;17.90;95.90;;;17.10;93.60;100408.97;4974738;28;19930;-66
2021/08/26 01:13:51;;;;;;;;;;;17.90;95.90;;;17.05;94.12;100406.03;4992372;28;19934;-66
2021/08/26 01:16:18;;;;;;;;;;;18.00;96.00;;;17.08;93.82;100410.25;4991641;28;19930;-66
2021/08/26 01:18:47;;;;;;;;;;;17.90;96.10;;;17.13;93.63;100422.22;4992212;28;20037;-66
2021/08/26 01:21:15;;;;;;;;;;;18.00;96.30;;;17.14;93.46;100428.59;4992346;28;19973;-66
2021/08/26 01:23:45;;;;;;;;;;;17.90;95.90;;;17.16;92.14;100410.78;4992113;28;19930;-66
2021/08/26 01:26:16;;;;;;;;;;;17.90;95.30;;;17.16;91.53;100420.94;4991654;28;20020;-66
2021/08/26 01:28:49;;;;;;;;;;;17.90;95.00;;;17.14;90.45;100421.16;4974218;28;19930;-66
2021/08/26 01:31:17;;;;;;;;;;;17.80;94.50;;;17.12;90.58;100428.81;4992175;28;20316;-66
2021/08/26 01:33:46;;;;;;;;;;;17.80;94.60;;;17.11;90.47;100418.88;4991882;28;19984;-66
2021/08/26 01:36:13;;;;;;;;;;;17.70;94.80;;;17.10;90.08;100419.94;4991217;28;19930;-66
2021/08/26 01:38:40;;;;;;;;;;;17.70;94.60;;;17.06;89.92;100418.75;4991721;28;19933;-66
2021/08/26 01:41:07;;;;;;;;;;;17.70;94.60;;;17.04;89.82;100420.88;4991441;28;20530;-66
2021/08/26 01:43:37;;;;;;;;;;;17.60;94.50;;;17.06;89.60;100418.75;4991542;28;20020;-66
2021/08/26 01:46:04;;;;;;;;;;;17.60;94.50;;;17.05;89.83;100427.22;4991106;28;19926;-66
2021/08/26 01:48:31;;;;;;;;;;;17.60;94.70;;;17.05;89.34;100417.03;4991555;28;20481;-66
2021/08/26 01:50:58;;;;;;;;;;;17.60;94.60;;;17.03;89.21;100426.59;4991617;28;19933;-66
2021/08/26 01:53:25;;;;;;;;;;;17.60;94.40;;;17.04;88.91;100426.38;4991573;28;20393;-66
2021/08/26 01:55:52;;;;;;;;;;;17.60;94.20;;;17.03;88.82;100419.19;4990504;28;20383;-66
2021/08/26 01:58:19;;;;;;;;;;;17.60;94.40;;;17.03;88.95;100413.69;4991157;28;19929;-66
2021/08/26 02:00:48;;;;;;;;;;;17.60;94.50;;;17.02;88.98;100416.66;4991559;28;19929;-66
2021/08/26 02:03:15;;;;;;;;;;;17.60;94.40;;;17.03;88.83;100412.84;4991086;28;19929;-66
2021/08/26 02:05:42;;;;;;;;;;;17.60;94.40;;;17.01;88.90;100413.06;4990813;28;20071;-66
2021/08/26 02:08:09;;;;;;;;;;;17.50;94.40;;;17.02;89.14;100406.53;4991160;28;19926;-66
2021/08/26 02:10:36;;;;;;;;;;;17.50;94.80;;;17.00;89.20;100408.63;4990404;28;20507;-66
2021/08/26 02:13:03;;;;;;;;;;;17.50;94.80;;;17.01;89.38;100415.81;4990571;28;19926;-66
2021/08/26 02:15:30;;;;;;;;;;;17.50;95.10;;;16.99;89.51;100402.31;4990297;28;20386;-66
2021/08/26 02:17:59;;;;;;;;;;;17.50;95.20;;;16.96;89.67;100402.78;4990926;28;19938;-66
2021/08/26 02:20:26;;;;;;;;;;;17.50;95.10;;;16.95;89.53;100403.84;4990677;28;19980;-66
2021/08/26 02:22:53;;;;;;;;;;;17.50;95.30;;;16.97;89.58;100414.63;4990759;28;19930;-66
2021/08/26 02:25:20;;;;;;;;;;;17.50;95.40;;;16.95;89.51;100406.59;4990696;28;20007;-66
2021/08/26 02:27:47;;;;;;;;;;;17.50;95.40;;;16.90;89.84;100400.09;4990930;28;19929;-66
2021/08/26 02:30:14;;;;;;;;;;;17.40;95.30;;;16.83;90.47;100396.56;4991158;28;19926;-66
2021/08/26 02:32:41;;;;;;;;;;;17.40;95.30;;;16.87;89.92;100403.28;4991055;28;19976;-66
2021/08/26 02:35:11;;;;;;;;;;;17.40;95.30;;;16.84;90.02;100399.09;4990276;28;20364;-66
2021/08/26 02:37:38;;;;;;;;;;;17.40;95.20;;;16.82;90.03;100401.25;4956155;28;19938;-66
2021/08/26 02:40:07;;;;;;;;;;;17.40;95.30;;;16.86;89.97;100390.63;4972636;28;20307;-66
2021/08/26 02:42:34;;;;;;;;;;;17.40;95.30;;;16.89;89.56;100406.69;4990669;28;19926;-66
2021/08/26 02:45:01;;;;;;;;;;;17.40;95.30;;;16.89;89.72;100395.69;4990059;28;20004;-66
2021/08/26 02:47:28;;;;;;;;;;;17.40;95.40;;;16.87;89.54;100401.41;4990537;28;19936;-66
2021/08/26 02:49:55;;;;;;;;;;;17.40;95.40;;;16.85;89.57;100399.94;4990199;28;19945;-66
2021/08/26 02:52:24;;;;;;;;;;;17.30;95.20;;;16.85;89.21;100400.81;4990668;28;19988;-66
2021/08/26 02:54:51;;;;;;;;;;;17.30;95.20;;;16.86;89.36;100396.97;4990269;28;19971;-66
2021/08/26 02:57:18;;;;;;;;;;;17.30;95.40;;;16.83;89.58;100402.94;4990443;28;19964;-66
2021/08/26 02:59:45;;;;;;;;;;;17.30;95.40;;;16.79;89.60;100397.03;4990360;28;19964;-66
2021/08/26 03:02:12;;;;;;;;;;;17.30;95.30;;;16.81;89.51;100394.88;4990137;28;19984;-66
2021/08/26 03:04:39;;;;;;;;;;;17.30;95.20;;;16.80;89.48;100392.34;4990185;28;20001;-66
2021/08/26 03:07:06;;;;;;;;;;;17.30;95.30;;;16.81;89.21;100389.38;4990157;28;19936;-66
2021/08/26 03:09:34;;;;;;;;;;;17.30;95.30;;;16.78;89.21;100395.31;5001069;28;20051;-66
2021/08/26 03:12:01;;;;;;;;;;;17.30;95.10;;;16.72;89.26;100401.75;5009841;28;19936;-66
2021/08/26 03:14:28;;;;;;;;;;;17.30;95.10;;;16.75;89.45;100395.81;5009447;28;19929;-66
2021/08/26 03:16:56;;;;;;;;;;;17.30;95.20;;;16.71;89.15;100399.22;5009523;28;19975;-66
2021/08/26 03:19:23;;;;;;;;;;;17.20;94.90;;;16.73;89.08;100386.91;5009619;28;20381;-66
2021/08/26 03:21:50;;;;;;;;;;;17.30;95.00;;;16.71;88.26;100397.31;5009592;28;20020;-66
2021/08/26 03:24:17;;;;;;;;;;;17.20;94.30;;;16.68;87.80;100397.78;5009597;28;19977;-66
2021/08/26 03:26:45;;;;;;;;;;;17.20;93.80;;;16.67;87.34;100398.84;5009385;28;20314;-66
2021/08/26 03:29:13;;;;;;;;;;;17.20;93.80;;;16.69;87.48;100407.69;5009633;28;20024;-66
2021/08/26 03:31:40;;;;;;;;;;;17.20;94.00;;;16.69;87.73;100402.19;5009263;28;19926;-66
2021/08/26 03:34:07;;;;;;;;;;;17.20;94.20;;;16.72;87.15;100404.50;5009445;28;20064;-66
2021/08/26 03:36:34;;;;;;;;;;;17.20;93.90;;;16.69;87.22;100402.19;5008933;28;19929;-66
2021/08/26 03:39:01;;;;;;;;;;;17.20;93.90;;;16.66;87.20;100408.16;5009487;28;19975;-66
2021/08/26 03:41:28;;;;;;;;;;;17.10;93.60;;;16.64;86.37;100399.31;5009247;28;20033;-66
2021/08/26 03:43:56;;;;;;;;;;;17.10;93.20;;;16.64;86.41;100410.28;5009442;28;20483;-66
2021/08/26 03:46:23;;;;;;;;;;;17.10;93.40;;;16.62;85.92;100401.44;5008891;28;19933;-66
2021/08/26 03:48:50;;;;;;;;;;;17.10;93.00;;;16.62;86.24;100401.44;5009127;28;20024;-66
2021/08/26 03:51:17;;;;;;;;;;;17.10;93.30;;;16.63;86.03;100403.09;4990688;28;19964;-66
2021/08/26 03:53:45;;;;;;;;;;;17.00;93.30;;;16.61;85.72;100400.59;5008967;28;19980;-66
2021/08/26 03:56:12;;;;;;;;;;;17.10;92.90;;;16.60;86.11;100389.81;5008533;28;19929;-66
2021/08/26 03:58:39;;;;;;;;;;;17.00;93.20;;;16.57;85.58;100393.03;5008829;28;19932;-66
2021/08/26 04:01:08;;;;;;;;;;;17.00;92.70;;;16.57;85.53;100388.38;5009207;28;20400;-66
2021/08/26 04:03:35;;;;;;;;;;;17.00;93.00;;;16.59;85.63;100377.16;5008929;28;20300;-66
2021/08/26 04:06:03;;;;;;;;;;;17.00;93.10;;;16.58;85.38;100372.72;5008563;28;19983;-66
2021/08/26 04:08:30;;;;;;;;;;;17.00;93.00;;;16.55;85.24;100375.94;5009166;28;20381;-66
2021/08/26 04:10:57;;;;;;;;;;;16.90;93.00;;;16.54;85.48;100380.56;5008998;28;19933;-66
2021/08/26 04:13:24;;;;;;;;;;;16.90;93.00;;;16.52;85.13;100374.47;5008811;28;20420;-66
2021/08/26 04:15:51;;;;;;;;;;;16.90;92.90;;;16.54;85.30;100379.75;5008384;28;19929;-66
2021/08/26 04:18:20;;;;;;;;;;;16.90;93.00;;;16.50;85.48;100381.25;5008882;28;20383;-66
2021/08/26 04:20:47;;;;;;;;;;;16.90;93.20;;;16.49;85.56;100374.09;5008760;28;19961;-67
2021/08/26 04:23:14;;;;;;;;;;;16.90;93.30;;;16.50;85.77;100384.00;5008884;28;20119;-67
2021/08/26 04:25:41;;;;;;;;;;;16.80;93.30;;;16.48;85.56;100372.41;5008142;28;19930;-67
2021/08/26 04:28:08;;;;;;;;;;;16.80;93.50;;;16.45;85.57;100373.72;5008734;28;20051;-66
2021/08/26 04:30:35;;;;;;;;;;;16.80;93.40;;;16.45;85.87;100367.38;5008836;28;20392;-66
2021/08/26 04:33:04;;;;;;;;;;;16.80;93.60;;;16.45;85.76;100368.22;5008616;28;20016;-66
2021/08/26 04:35:33;;;;;;;;;;;16.80;93.60;;;16.44;85.89;100371.19;5008225;28;19926;-67
2021/08/26 04:38:00;;;;;;;;;;;16.90;93.80;;;16.42;86.04;100369.50;5008660;28;19983;-66
2021/08/26 04:40:27;;;;;;;;;;;16.80;93.60;;;16.44;85.90;100376.69;5008493;28;20029;-67
2021/08/26 04:42:54;;;;;;;;;;;16.80;93.70;;;16.42;86.19;100369.50;5008464;28;19925;-66
2021/08/26 04:45:21;;;;;;;;;;;16.80;93.90;;;16.42;85.77;100372.25;5008037;28;19926;-66
2021/08/26 04:47:48;;;;;;;;;;;16.80;93.50;;;16.42;85.32;100369.50;4990828;28;20440;-66
2021/08/26 04:50:15;;;;;;;;;;;16.80;93.20;;;16.41;85.34;100372.47;5008333;28;19984;-66
2021/08/26 04:52:44;;;;;;;;;;;16.80;93.30;;;16.39;84.96;100364.47;5008580;28;20028;-67
2021/08/26 04:55:11;;;;;;;;;;;16.80;92.80;;;16.38;85.09;100365.53;5006582;28;19930;-67
2021/08/26 04:57:38;;;;;;;;;;;16.80;93.10;;;16.40;84.39;100374.38;4992734;28;20025;-66
2021/08/26 05:00:07;;;;;;;;;;;16.80;92.40;;;16.37;84.09;100371.25;4988645;28;20410;-67
2021/08/26 05:02:34;;;;;;;;;;;16.80;91.90;;;16.37;84.20;100372.09;4999405;28;20417;-67
2021/08/26 05:05:01;;;;;;;;;;;16.80;92.10;;;16.35;83.73;100374.22;5026288;28;19926;-66
2021/08/26 05:07:29;;;;;;;;;;;16.80;91.30;;;16.35;83.84;100370.63;5031510;28;20015;-67
2021/08/26 05:09:57;;;;;;;;;;;16.80;91.80;;;16.32;83.84;100374.69;5031950;28;19929;-67
2021/08/26 05:12:24;;;;;;;;;;;16.80;91.70;;;16.32;83.77;100374.69;5031246;28;19925;-67
2021/08/26 05:14:51;;;;;;;;;;;16.80;91.80;;;16.31;84.11;100367.50;5031116;28;19961;-67
2021/08/26 05:17:19;;;;;;;;;;;16.80;92.00;;;16.32;83.22;100365.63;5022951;28;19963;-67
2021/08/26 05:19:47;;;;;;;;;;;16.80;90.90;;;16.34;83.21;100372.56;4994186;28;19960;-67
2021/08/26 05:22:14;;;;;;;;;;;16.80;91.10;;;16.32;83.13;100376.59;5019433;28;19936;-67
2021/08/26 05:24:41;;;;;;;;;;;16.80;91.20;;;16.29;83.25;100375.13;5028507;28;19929;-67
2021/08/26 05:27:09;;;;;;;;;;;16.80;91.00;;;16.31;82.44;100372.16;5031759;28;20408;-68
2021/08/26 05:29:36;;;;;;;;;;;16.80;90.30;;;16.25;82.83;100368.41;5031429;28;19971;-68
2021/08/26 05:32:05;;;;;;;;;;;16.80;90.70;;;16.27;82.78;100377.25;5027042;28;19933;-68
2021/08/26 05:34:32;;;;;;;;;;;16.80;90.50;;;16.27;83.13;100366.28;5032053;28;20356;-67
2021/08/26 05:36:59;;;;;;;;;;;16.80;90.80;;;16.28;82.86;100372.59;5011218;28;19933;-67
2021/08/26 05:39:26;;;;;;;;;;;16.80;90.60;;;16.30;83.22;100376.81;5011310;28;20484;-67
2021/08/26 05:41:53;;;;;;;;;;;16.80;90.90;;;16.33;83.38;100381.84;4993675;28;19997;-67
2021/08/26 05:44:22;;;;;;;;;;;16.80;91.00;;;16.36;83.24;100377.81;5011265;28;20365;-67
2021/08/26 05:46:49;;;;;;;;;;;16.90;91.10;;;16.36;82.75;100377.81;5011003;28;20044;-67
2021/08/26 05:49:16;;;;;;;;;;;16.90;90.30;;;16.32;82.92;100374.69;5011162;28;20000;-67
2021/08/26 05:51:43;;;;;;;;;;;16.90;90.60;;;16.33;82.85;100370.03;5011398;28;19929;-67
2021/08/26 05:54:10;;;;;;;;;;;16.90;90.40;;;16.31;82.90;100366.66;5011376;28;19929;-67
2021/08/26 05:56:38;;;;;;;;;;;16.90;90.40;;;16.32;82.85;100380.19;5010558;28;19930;-67
2021/08/26 05:59:05;;;;;;;;;;;16.90;90.30;;;16.36;82.89;100375.06;5010992;28;19961;-67
2021/08/26 06:04:00;;;;;;;;;;;17.00;90.30;;;16.38;82.57;100376.53;5028515;28;19973;-68
2021/08/26 06:06:27;;;;;;;;;;;17.00;89.80;;;16.38;83.11;100378.44;5030240;28;19925;-68
2021/08/26 06:08:54;;;;;;;;;;;17.00;90.20;;;16.37;82.74;100380.34;5030674;28;19939;-67
2021/08/26 06:11:21;;;;;;;;;;;17.10;89.60;;;16.40;82.90;100371.63;5030385;28;19933;-68
2021/08/26 06:13:48;;;;;;;;;;;17.10;89.80;;;16.45;83.20;100372.84;5029714;28;19971;-70
2021/08/26 06:16:16;;;;;;;;;;;17.20;89.90;;;16.42;82.58;100375.00;5029021;28;19933;-68
2021/08/26 06:18:43;;;;;;;;;;;17.20;89.20;;;16.40;83.19;100370.81;5030383;28;19948;-68
2021/08/26 06:21:11;;;;;;;;;;;17.30;89.50;;;16.40;82.41;100368.06;5030356;28;19929;-68
2021/08/26 06:23:39;;;;;;;;;;;17.30;88.60;;;16.44;82.37;100371.19;5028794;28;20375;-67
2021/08/26 06:26:06;;;;;;;;;;;17.40;88.30;;;16.49;82.16;100363.13;5029875;28;19965;-68
2021/08/26 06:28:33;;;;;;;;;;;17.50;88.00;;;16.52;82.04;100368.13;5026001;28;19936;-68
2021/08/26 06:31:01;;;;;;;;;;;17.60;87.40;;;16.56;82.16;100364.72;5030243;28;20422;-68
2021/08/26 06:33:29;;;;;;;;;;;17.70;87.50;;;16.58;81.78;100372.72;5014935;28;19975;-68
2021/08/26 06:35:56;;;;;;;;;;;17.80;86.70;;;16.58;81.35;100375.47;5027297;28;19932;-68
2021/08/26 06:38:24;;;;;;;;;;;17.70;86.50;;;16.59;81.91;100379.91;5029391;28;19961;-68
2021/08/26 06:40:51;;;;;;;;;;;17.70;87.10;;;16.60;81.97;100376.06;5030077;28;19936;-67
2021/08/26 06:43:18;;;;;;;;;;;17.70;87.10;;;16.61;81.35;100375.84;5029367;28;20036;-68
2021/08/26 06:45:45;;;;;;;;;;;17.70;86.80;;;16.59;81.79;100374.41;5029190;28;19975;-68
2021/08/26 06:48:12;;;;;;;;;;;17.70;87.30;;;16.57;81.68;100374.63;5022219;28;19925;-68
2021/08/26 06:50:40;;;;;;;;;;;17.60;87.30;;;16.60;81.69;100374.19;5029470;28;19929;-68
2021/08/26 06:53:07;;;;;;;;;;;17.60;87.60;;;16.61;81.46;100372.28;5029521;28;19981;-68
2021/08/26 06:55:36;;;;;;;;;;;17.60;87.30;;;16.59;81.13;100372.50;5028989;28;19925;-68
2021/08/26 06:58:03;;;;;;;;;;;17.60;86.90;;;16.63;81.53;100377.53;5029700;28;20290;-68
2021/08/26 07:00:30;;;;;;;;;;;17.70;87.40;;;16.65;81.97;100381.72;5029341;28;20034;-68
2021/08/26 07:02:57;;;;;;;;;;;17.70;87.80;;;16.63;81.66;100372.88;5021324;28;19931;-68
2021/08/26 07:05:24;;;;;;;;;;;17.60;87.50;;;16.60;81.66;100378.81;5018054;28;19925;-68
2021/08/26 07:07:52;;;;;;;;;;;17.60;87.60;;;16.61;82.08;100383.25;5017127;28;20487;-68
2021/08/26 07:10:19;;;;;;;;;;;17.60;87.50;;;16.64;81.90;100382.81;5014768;28;19932;-69
2021/08/26 07:12:47;;;;;;;;;;;17.70;87.60;;;16.56;81.24;100383.09;5014498;28;20294;-68
2021/08/26 07:15:15;;;;;;;;;;;17.70;86.60;;;16.58;81.30;100372.72;5013541;28;19925;-68
2021/08/26 07:17:42;;;;;;;;;;;17.80;86.60;;;16.66;81.52;100379.81;5023749;28;20394;-68
2021/08/26 07:20:12;;;;;;;;;;;17.90;86.50;;;16.69;82.33;100384.88;5038084;28;20012;-68
2021/08/26 07:22:39;;;;;;;;;;;17.90;86.80;;;16.72;81.92;100384.44;5018243;28;19936;-68
2021/08/26 07:25:07;;;;;;;;;;;18.00;86.20;;;16.75;81.49;100378.44;5018740;28;19933;-68
2021/08/26 07:27:34;;;;;;;;;;;18.00;86.00;;;16.76;81.27;100378.22;5008465;28;19933;-68
2021/08/26 07:30:03;;;;;;;;;;;18.00;86.10;;;16.75;80.30;100379.31;5009310;28;20433;-68
2021/08/26 07:32:30;;;;;;;;;;;17.80;85.40;;;16.74;80.84;100377.63;5012005;28;20644;-68
2021/08/26 07:34:57;;;;;;;;;;;17.80;86.50;;;16.76;81.44;100388.41;5027505;28;19925;-68
2021/08/26 07:37:25;;;;;;;;;;;17.80;86.90;;;16.77;82.01;100384.56;5030977;28;19936;-68
2021/08/26 07:39:52;;;;;;;;;;;17.80;87.30;;;16.78;81.51;100384.34;5026913;28;19929;-68
2021/08/26 07:42:20;;;;;;;;;;;17.80;86.90;;;16.76;82.40;100391.97;5033762;28;20352;-68
2021/08/26 07:44:47;;;;;;;;;;;17.70;87.90;;;16.77;82.79;100392.81;5021028;28;19929;-68
2021/08/26 07:47:16;;;;;;;;;;;17.70;88.40;;;16.76;83.82;100402.97;5027747;28;19933;-68
2021/08/26 07:49:43;;;;;;;;;;;17.80;89.20;;;16.72;84.32;100393.50;5016412;28;20409;-68
2021/08/26 07:52:10;;;;;;;;;;;17.70;89.50;;;16.75;85.07;100393.06;5018902;28;20474;-68
2021/08/26 07:54:37;;;;;;;;;;;17.80;90.00;;;16.77;85.85;100393.66;5026117;28;20023;-68
2021/08/26 07:57:04;;;;;;;;;;;17.90;90.20;;;16.81;86.53;100396.78;5026866;28;20051;-68
2021/08/26 07:59:33;;;;;;;;;;;18.00;90.40;;;16.77;86.84;100390.06;5028107;28;19933;-68
2021/08/26 08:02:00;;;;;;;;;;;18.00;90.20;;;16.80;87.03;100382.19;5027992;28;19929;-68
2021/08/26 08:04:29;;;;;;;;;;;18.10;89.80;;;16.85;87.98;100372.44;5021883;28;19929;-68
2021/08/26 08:06:56;;;;;;;;;;;18.30;89.60;;;16.94;88.67;100382.06;5012030;28;20393;-68
2021/08/26 08:09:23;;;;;;;;;;;18.50;90.00;;;16.97;88.76;100371.47;5026665;28;19929;-68
2021/08/26 08:11:50;;;;;;;;;;;18.70;89.40;;;17.03;89.21;100369.69;5025024;28;20020;-68
2021/08/26 08:14:17;;;;;;;;;;;18.80;89.10;;;16.95;88.92;100372.78;5026675;28;19968;-68
2021/08/26 08:16:45;;;;;;;;;;;18.80;88.80;;;17.00;88.98;100381.13;5027515;28;19933;-68
2021/08/26 08:19:12;;;;;;;;;;;18.90;88.60;;;17.08;90.30;100372.59;5043041;28;19929;-68
2021/08/26 08:21:40;;;;;;;;;;;19.00;89.50;;;17.14;91.79;100368.91;5025770;28;19932;-68
2021/08/26 08:24:08;;;;;;;;;;;19.20;88.50;;;17.18;90.82;100372.06;5019893;28;19968;-68
2021/08/26 08:26:35;;;;;;;;;;;19.30;88.00;;;17.24;91.13;100371.13;5013276;28;19929;-68
2021/08/26 08:29:02;;;;;;;;;;;19.40;87.90;;;17.28;89.56;100366.81;5012709;28;20624;-68
2021/08/26 08:31:29;;;;;;;;;;;19.40;87.20;;;17.33;89.63;100375.22;5041254;28;19932;-68
2021/08/26 08:33:56;;;;;;;;;;;19.30;88.20;;;17.38;89.24;100369.00;5027544;28;19975;-68
2021/08/26 08:36:24;;;;;;;;;;;19.40;87.60;;;17.39;90.82;100355.03;5018675;28;19929;-68
2021/08/26 08:38:52;;;;;;;;;;;19.50;88.40;;;17.41;90.13;100357.56;5011378;28;19952;-67
2021/08/26 08:41:20;;;;;;;;;;;19.50;87.90;;;17.44;89.89;100354.34;5011959;28;19932;-68
2021/08/26 08:43:48;;;;;;;;;;;19.30;87.90;;;17.44;90.33;100358.97;5018352;28;20012;-68
2021/08/26 08:46:18;;;;;;;;;;;19.30;88.90;;;17.45;89.81;100361.50;5030951;28;19933;-68
2021/08/26 08:48:46;;;;;;;;;;;19.20;88.60;;;17.46;88.59;100373.34;5028328;28;19929;-68
2021/08/26 08:51:14;;;;;;;;;;;19.20;87.70;;;17.44;88.68;100367.25;5021701;28;19929;-68
2021/08/26 08:53:41;;;;;;;;;;;19.10;88.10;;;17.45;87.69;100367.00;5018405;28;20373;-68
2021/08/26 08:56:10;;;;;;;;;;;19.10;87.70;;;17.45;87.18;100361.50;5020402;28;19928;-68
2021/08/26 08:58:37;;;;;;;;;;;19.10;87.30;;;17.47;86.51;100364.03;5021897;28;20458;-67
2021/08/26 09:01:05;;;;;;;;;;;19.00;87.00;;;17.47;86.06;100353.84;5028670;28;19929;-68
2021/08/26 09:03:32;;;;;;;;;;;19.00;87.20;;;17.45;85.91;100361.50;5020579;28;19936;-68
2021/08/26 09:06:01;;;;;;;;;;;19.00;87.10;;;17.50;86.80;100352.56;5022792;28;20352;-68
2021/08/26 09:08:29;;;;;;;;;;;19.10;87.40;;;17.50;86.36;100347.91;5019416;28;20668;-68
2021/08/26 09:11:12;;;;;;;;;;;19.10;87.10;;;17.52;87.65;100354.00;5020292;28;19933;-72
2021/08/26 09:13:40;;;;;;;;;;;19.20;87.70;;;17.55;87.93;100347.19;5043303;28;19925;-68
2021/08/26 09:16:07;;;;;;;;;;;19.40;86.70;;;17.54;87.55;100349.09;5030733;28;19929;-68
2021/08/26 09:18:35;;;;;;;;;;;19.50;86.60;;;17.62;87.25;100347.09;5030462;28;19937;-68
2021/08/26 09:21:05;;;;;;;;;;;19.60;86.10;;;17.67;86.27;100344.44;5030093;28;19972;-68
2021/08/26 09:23:35;;;;;;;;;;;19.70;85.00;;;17.69;85.39;100345.91;5012506;28;19965;-68
2021/08/26 09:26:18;;;;;;;;;;;19.80;84.50;;;17.63;85.29;100346.00;5029391;28;20031;-67
2021/08/26 09:28:46;;;;;;;;;;;19.80;84.40;;;17.59;84.89;100341.00;5030435;28;19929;-68
2021/08/26 09:31:16;;;;;;;;;;;19.70;84.30;;;17.67;85.17;100339.81;5026221;28;19936;-68
2021/08/26 09:33:48;;;;;;;;;;;19.80;84.30;;;17.73;83.88;100346.28;5010999;28;19947;-68
2021/08/26 09:36:18;;;;;;;;;;;19.80;83.30;;;17.79;84.85;100345.34;5010577;28;20355;-68
2021/08/26 09:38:51;;;;;;;;;;;19.90;84.00;;;17.86;85.84;100348.84;5011212;28;20455;-68
2021/08/26 09:41:36;;;;;;;;;;;20.10;84.20;;;17.90;85.07;100340.97;5030426;28;19933;-68
2021/08/26 09:44:04;;;;;;;;;;;20.20;83.20;;;17.97;84.79;100342.53;5045730;28;20069;-68
2021/08/26 09:46:32;;;;;;;;;;;20.20;82.70;;;18.05;85.84;100343.22;5029740;28;19929;-68
2021/08/26 09:49:03;;;;;;;;;;;20.30;83.60;;;18.05;83.36;100348.75;5029475;28;19929;-68
2021/08/26 09:51:30;;;;;;;;;;;20.30;81.70;;;18.05;83.45;100346.84;5019850;28;20364;-68
2021/08/26 09:53:57;;;;;;;;;;;20.20;82.50;;;18.07;82.62;100349.38;5010588;28;19980;-68
2021/08/26 09:56:26;;;;;;;;;;;20.00;82.10;;;18.06;82.96;100356.75;5019024;28;19925;-68
2021/08/26 09:58:54;;;;;;;;;;;20.00;82.80;;;18.07;83.77;100352.13;5037400;28;20381;-68
2021/08/26 10:01:23;;;;;;;;;;;19.90;83.90;;;18.05;82.09;100359.75;5014150;28;19929;-68
2021/08/26 10:03:51;;;;;;;;;;;19.80;82.20;;;18.02;80.90;100354.75;5026444;28;19925;-68
2021/08/26 10:06:20;;;;;;;;;;;19.80;81.70;;;18.02;81.01;100365.75;5027452;28;19940;-68
2021/08/26 10:08:49;;;;;;;;;;;19.80;81.90;;;18.02;81.57;100360.25;5025461;28;20040;-68
2021/08/26 10:11:19;;;;;;;;;;;19.80;82.40;;;18.04;82.49;100352.59;5025320;28;20312;-68
2021/08/26 10:13:49;;;;;;;;;;;19.90;83.10;;;18.04;81.99;100360.84;5027551;28;19929;-69
2021/08/26 10:16:17;;;;;;;;;;;20.00;82.50;;;18.06;83.17;100362.28;5016319;28;19936;-68
2021/08/26 10:18:49;;;;;;;;;;;20.00;82.90;;;18.06;81.85;100361.44;5021680;28;20683;-68
2021/08/26 10:21:18;;;;;;;;;;;20.10;81.80;;;18.12;83.15;100360.47;5027693;28;19925;-68
2021/08/26 10:23:48;;;;;;;;;;;20.30;82.30;;;18.15;82.71;100358.09;5030097;28;19936;-68
2021/08/26 10:26:22;;;;;;;;;;;20.40;81.80;;;18.17;80.94;100363.38;5022446;28;19933;-69
2021/08/26 10:28:57;;;;;;;;;;;20.40;80.30;;;18.21;82.14;100361.81;5020474;28;19979;-68
2021/08/26 10:31:29;;;;;;;;;;;20.40;81.60;;;18.22;80.69;100371.75;5017711;28;20023;-69
2021/08/26 10:34:19;;;;;;;;;;;20.30;80.00;;;18.23;80.60;100373.44;5020375;28;19925;-69
2021/08/26 10:37:08;;;;;;;;;;;20.20;80.80;;;18.21;79.98;100372.81;5023549;28;20033;-68
2021/08/26 10:39:39;;;;;;;;;;;20.10;80.90;;;18.19;80.18;100366.72;5020634;28;19929;-69
2021/08/26 10:42:40;;;;;;;;;;;20.00;81.50;;;18.17;79.62;100369.72;5012995;28;20301;-68
2021/08/26 10:45:12;;;;;;;;;;;20.00;81.50;;;18.19;79.74;100361.22;4983221;28;20446;-69
2021/08/26 10:48:25;;;;;;;;;;;20.10;80.50;;;18.20;79.37;100357.41;5020543;28;19933;-69
2021/08/26 10:51:08;;;;;;;;;;;20.10;80.80;;;18.21;80.10;100367.31;5018634;28;19940;-68
2021/08/26 10:53:37;;;;;;;;;;;20.20;80.90;;;18.24;80.01;100364.09;5011019;28;19925;-69
2021/08/26 10:56:22;;;;;;;;;;;20.20;80.30;;;18.28;80.91;100359.78;5014875;28;19925;-69
2021/08/26 10:58:49;;;;;;;;;;;20.30;81.20;;;18.31;81.46;100364.78;5019085;28;19936;-69
2021/08/26 11:01:35;;;;;;;;;;;20.40;81.30;;;18.38;83.71;100359.19;5010623;28;20035;-69
2021/08/26 11:04:04;;;;;;;;;;;20.50;82.80;;;18.39;80.86;100360.00;5017908;28;19929;-69
2021/08/26 11:06:41;;;;;;;;;;;20.50;79.90;;;18.40;81.99;100368.03;5008841;28;19932;-69
2021/08/26 11:09:31;;;;;;;;;;;20.50;81.40;;;18.39;81.33;100357.25;5010748;28;19929;-69
2021/08/26 11:12:04;;;;;;;;;;;20.50;81.30;;;18.42;82.26;100360.38;5028707;28;19944;-69
2021/08/26 11:14:34;;;;;;;;;;;20.60;81.20;;;18.43;81.08;100366.72;5007483;28;19929;-68
2021/08/26 11:17:04;;;;;;;;;;;20.60;80.10;;;18.45;81.04;100364.56;5009098;28;19961;-69
2021/08/26 11:19:37;;;;;;;;;;;20.50;81.10;;;18.46;80.60;100360.72;5024181;28;20551;-69
2021/08/26 11:22:08;;;;;;;;;;;20.50;80.80;;;18.46;80.71;100371.75;5009214;28;20471;-69
2021/08/26 11:24:53;;;;;;;;;;;20.40;81.10;;;18.46;81.07;100371.75;5008807;28;19930;-69